sensor_id;sensor_type;location;lat;lon;timestamp;temperature;humidity
76104;HTU21D;64831;44.870;37.336;2023-02-25T00:00:24;7.61;66.80
76104;HTU21D;64831;44.870;37.336;2023-02-25T00:02:50;7.64;66.34
76104;HTU21D;64831;44.870;37.336;2023-02-25T00:05:17;7.68;65.92
76104;HTU21D;64831;44.870;37.336;2023-02-25T00:07:44;7.71;65.99
76104;HTU21D;64831;44.870;37.336;2023-02-25T00:10:12;7.74;66.01
76104;HTU21D;64831;44.870;37.336;2023-02-25T00:12:39;7.75;66.36
76104;HTU21D;64831;44.870;37.336;2023-02-25T00:15:06;7.78;66.22
76104;HTU21D;64831;44.870;37.336;2023-02-25T00:17:32;7.83;65.88
76104;HTU21D;64831;44.870;37.336;2023-02-25T00:19:58;7.84;66.01
76104;HTU21D;64831;44.870;37.336;2023-02-25T00:22:26;7.85;65.94
76104;HTU21D;64831;44.870;37.336;2023-02-25T00:24:56;7.88;65.85
76104;HTU21D;64831;44.870;37.336;2023-02-25T00:27:23;7.89;65.43
76104;HTU21D;64831;44.870;37.336;2023-02-25T00:29:52;7.90;65.58
76104;HTU21D;64831;44.870;37.336;2023-02-25T00:32:19;7.94;65.76
76104;HTU21D;64831;44.870;37.336;2023-02-25T00:34:45;7.97;65.69
76104;HTU21D;64831;44.870;37.336;2023-02-25T00:37:12;8.00;65.75
76104;HTU21D;64831;44.870;37.336;2023-02-25T00:39:38;8.01;65.49
76104;HTU21D;64831;44.870;37.336;2023-02-25T00:42:11;8.03;65.37
76104;HTU21D;64831;44.870;37.336;2023-02-25T00:44:37;8.03;65.53
76104;HTU21D;64831;44.870;37.336;2023-02-25T00:47:04;8.04;65.72
76104;HTU21D;64831;44.870;37.336;2023-02-25T00:49:30;8.03;65.75
76104;HTU21D;64831;44.870;37.336;2023-02-25T00:51:56;8.04;65.69
76104;HTU21D;64831;44.870;37.336;2023-02-25T00:54:22;8.04;65.98
76104;HTU21D;64831;44.870;37.336;2023-02-25T00:56:48;8.06;65.87
76104;HTU21D;64831;44.870;37.336;2023-02-25T00:59:14;8.08;66.07
76104;HTU21D;64831;44.870;37.336;2023-02-25T01:01:40;8.12;65.98
76104;HTU21D;64831;44.870;37.336;2023-02-25T01:04:07;8.12;66.19
76104;HTU21D;64831;44.870;37.336;2023-02-25T01:06:36;8.14;65.88
76104;HTU21D;64831;44.870;37.336;2023-02-25T01:09:05;8.16;65.98
76104;HTU21D;64831;44.870;37.336;2023-02-25T01:11:33;8.19;66.18
76104;HTU21D;64831;44.870;37.336;2023-02-25T01:14:10;8.19;66.21
76104;HTU21D;64831;44.870;37.336;2023-02-25T01:16:37;8.20;66.14
76104;HTU21D;64831;44.870;37.336;2023-02-25T01:19:06;8.21;66.19
76104;HTU21D;64831;44.870;37.336;2023-02-25T01:21:36;8.23;66.56
76104;HTU21D;64831;44.870;37.336;2023-02-25T01:24:10;8.24;66.75
76104;HTU21D;64831;44.870;37.336;2023-02-25T01:26:38;8.26;66.68
76104;HTU21D;64831;44.870;37.336;2023-02-25T01:29:11;8.28;66.65
76104;HTU21D;64831;44.870;37.336;2023-02-25T01:31:38;8.29;66.65
76104;HTU21D;64831;44.870;37.336;2023-02-25T01:34:06;8.27;66.75
76104;HTU21D;64831;44.870;37.336;2023-02-25T01:36:33;8.30;66.48
76104;HTU21D;64831;44.870;37.336;2023-02-25T01:39:00;8.31;67.01
76104;HTU21D;64831;44.870;37.336;2023-02-25T01:41:28;8.32;67.10
76104;HTU21D;64831;44.870;37.336;2023-02-25T01:44:22;8.35;66.91
76104;HTU21D;64831;44.870;37.336;2023-02-25T01:46:52;8.37;66.90
76104;HTU21D;64831;44.870;37.336;2023-02-25T01:49:37;8.38;66.95
76104;HTU21D;64831;44.870;37.336;2023-02-25T01:52:22;8.42;67.07
76104;HTU21D;64831;44.870;37.336;2023-02-25T01:54:53;8.41;67.17
76104;HTU21D;64831;44.870;37.336;2023-02-25T01:57:20;8.42;67.19
76104;HTU21D;64831;44.870;37.336;2023-02-25T01:59:47;8.43;67.20
76104;HTU21D;64831;44.870;37.336;2023-02-25T02:02:18;8.44;67.05
76104;HTU21D;64831;44.870;37.336;2023-02-25T02:04:46;8.45;66.98
76104;HTU21D;64831;44.870;37.336;2023-02-25T02:07:18;8.47;67.02
76104;HTU21D;64831;44.870;37.336;2023-02-25T02:09:45;8.47;66.71
76104;HTU21D;64831;44.870;37.336;2023-02-25T02:12:41;8.51;66.12
76104;HTU21D;64831;44.870;37.336;2023-02-25T02:15:11;8.53;65.91
76104;HTU21D;64831;44.870;37.336;2023-02-25T02:20:22;8.55;64.54
76104;HTU21D;64831;44.870;37.336;2023-02-25T02:36:57;8.73;62.26
76104;HTU21D;64831;44.870;37.336;2023-02-25T02:39:48;8.73;62.28
76104;HTU21D;64831;44.870;37.336;2023-02-25T02:45:20;8.68;63.11
76104;HTU21D;64831;44.870;37.336;2023-02-25T02:47:55;8.71;63.13
76104;HTU21D;64831;44.870;37.336;2023-02-25T02:50:31;8.72;63.40
76104;HTU21D;64831;44.870;37.336;2023-02-25T02:53:02;8.73;63.82
76104;HTU21D;64831;44.870;37.336;2023-02-25T02:55:36;8.72;64.27
76104;HTU21D;64831;44.870;37.336;2023-02-25T02:58:27;8.73;64.43
76104;HTU21D;64831;44.870;37.336;2023-02-25T03:01:16;8.73;64.77
76104;HTU21D;64831;44.870;37.336;2023-02-25T03:03:51;8.72;65.08
76104;HTU21D;64831;44.870;37.336;2023-02-25T03:06:26;8.70;65.33
76104;HTU21D;64831;44.870;37.336;2023-02-25T03:08:57;8.68;65.83
76104;HTU21D;64831;44.870;37.336;2023-02-25T03:11:24;8.68;65.93
76104;HTU21D;64831;44.870;37.336;2023-02-25T03:13:51;8.67;65.74
76104;HTU21D;64831;44.870;37.336;2023-02-25T03:16:27;8.71;65.79
76104;HTU21D;64831;44.870;37.336;2023-02-25T03:19:20;8.74;65.45
76104;HTU21D;64831;44.870;37.336;2023-02-25T03:21:51;8.77;65.26
76104;HTU21D;64831;44.870;37.336;2023-02-25T03:24:34;8.80;64.82
76104;HTU21D;64831;44.870;37.336;2023-02-25T03:27:21;8.82;64.18
76104;HTU21D;64831;44.870;37.336;2023-02-25T03:29:49;8.86;63.72
76104;HTU21D;64831;44.870;37.336;2023-02-25T03:32:18;8.87;63.71
76104;HTU21D;64831;44.870;37.336;2023-02-25T03:34:47;8.91;63.78
76104;HTU21D;64831;44.870;37.336;2023-02-25T03:37:20;8.92;63.75
76104;HTU21D;64831;44.870;37.336;2023-02-25T03:39:52;8.91;63.85
76104;HTU21D;64831;44.870;37.336;2023-02-25T03:42:32;8.89;64.31
76104;HTU21D;64831;44.870;37.336;2023-02-25T03:45:01;8.89;64.33
76104;HTU21D;64831;44.870;37.336;2023-02-25T03:47:29;8.90;64.30
76104;HTU21D;64831;44.870;37.336;2023-02-25T03:50:02;8.89;64.54
76104;HTU21D;64831;44.870;37.336;2023-02-25T03:52:31;8.87;64.67
76104;HTU21D;64831;44.870;37.336;2023-02-25T03:55:01;8.87;64.56
76104;HTU21D;64831;44.870;37.336;2023-02-25T03:57:41;8.88;64.45
76104;HTU21D;64831;44.870;37.336;2023-02-25T04:00:15;8.87;64.30
76104;HTU21D;64831;44.870;37.336;2023-02-25T04:02:44;8.87;63.81
76104;HTU21D;64831;44.870;37.336;2023-02-25T04:05:12;8.90;63.85
76104;HTU21D;64831;44.870;37.336;2023-02-25T04:07:38;8.91;63.85
76104;HTU21D;64831;44.870;37.336;2023-02-25T04:10:06;8.93;63.81
76104;HTU21D;64831;44.870;37.336;2023-02-25T04:12:33;8.93;64.21
76104;HTU21D;64831;44.870;37.336;2023-02-25T04:14:59;8.93;63.33
76104;HTU21D;64831;44.870;37.336;2023-02-25T04:17:24;8.96;63.13
76104;HTU21D;64831;44.870;37.336;2023-02-25T04:19:51;8.97;62.37
76104;HTU21D;64831;44.870;37.336;2023-02-25T04:22:16;9.02;61.83
76104;HTU21D;64831;44.870;37.336;2023-02-25T04:24:42;9.05;61.85
76104;HTU21D;64831;44.870;37.336;2023-02-25T04:27:08;9.07;61.47
76104;HTU21D;64831;44.870;37.336;2023-02-25T04:29:34;9.10;61.21
76104;HTU21D;64831;44.870;37.336;2023-02-25T04:32:00;9.14;60.94
76104;HTU21D;64831;44.870;37.336;2023-02-25T04:34:26;9.17;60.97
76104;HTU21D;64831;44.870;37.336;2023-02-25T04:36:52;9.20;60.87
76104;HTU21D;64831;44.870;37.336;2023-02-25T04:39:18;9.22;60.97
76104;HTU21D;64831;44.870;37.336;2023-02-25T04:41:44;9.23;61.15
76104;HTU21D;64831;44.870;37.336;2023-02-25T04:44:10;9.22;59.94
76104;HTU21D;64831;44.870;37.336;2023-02-25T04:46:39;9.26;60.16
76104;HTU21D;64831;44.870;37.336;2023-02-25T04:49:06;9.29;60.09
76104;HTU21D;64831;44.870;37.336;2023-02-25T04:51:32;9.30;60.21
76104;HTU21D;64831;44.870;37.336;2023-02-25T04:53:58;9.29;60.03
76104;HTU21D;64831;44.870;37.336;2023-02-25T04:56:24;9.33;59.64
76104;HTU21D;64831;44.870;37.336;2023-02-25T04:58:50;9.52;59.74
76104;HTU21D;64831;44.870;37.336;2023-02-25T05:01:16;9.80;60.04
76104;HTU21D;64831;44.870;37.336;2023-02-25T05:03:42;10.10;59.83
76104;HTU21D;64831;44.870;37.336;2023-02-25T05:06:08;10.40;59.70
76104;HTU21D;64831;44.870;37.336;2023-02-25T05:08:35;10.58;58.25
76104;HTU21D;64831;44.870;37.336;2023-02-25T05:11:02;10.46;56.99
76104;HTU21D;64831;44.870;37.336;2023-02-25T05:13:28;10.37;57.12
76104;HTU21D;64831;44.870;37.336;2023-02-25T05:16:08;10.20;58.70
76104;HTU21D;64831;44.870;37.336;2023-02-25T05:18:40;10.01;59.86
76104;HTU21D;64831;44.870;37.336;2023-02-25T05:21:11;9.90;60.34
76104;HTU21D;64831;44.870;37.336;2023-02-25T05:23:38;9.80;60.74
76104;HTU21D;64831;44.870;37.336;2023-02-25T05:26:05;9.71;61.73
76104;HTU21D;64831;44.870;37.336;2023-02-25T05:28:31;9.66;61.85
76104;HTU21D;64831;44.870;37.336;2023-02-25T05:30:57;9.64;62.40
76104;HTU21D;64831;44.870;37.336;2023-02-25T05:33:22;9.56;62.71
76104;HTU21D;64831;44.870;37.336;2023-02-25T05:35:49;9.56;62.70
76104;HTU21D;64831;44.870;37.336;2023-02-25T05:38:16;9.59;62.34
76104;HTU21D;64831;44.870;37.336;2023-02-25T05:40:41;9.57;62.36
76104;HTU21D;64831;44.870;37.336;2023-02-25T05:43:07;9.61;62.37
76104;HTU21D;64831;44.870;37.336;2023-02-25T05:45:34;9.62;62.62
76104;HTU21D;64831;44.870;37.336;2023-02-25T05:48:00;9.68;62.98
76104;HTU21D;64831;44.870;37.336;2023-02-25T05:50:26;9.91;63.77
76104;HTU21D;64831;44.870;37.336;2023-02-25T05:52:53;10.22;63.60
76104;HTU21D;64831;44.870;37.336;2023-02-25T05:55:19;10.43;63.63
76104;HTU21D;64831;44.870;37.336;2023-02-25T05:57:45;10.73;63.37
76104;HTU21D;64831;44.870;37.336;2023-02-25T06:00:11;10.84;61.96
76104;HTU21D;64831;44.870;37.336;2023-02-25T06:02:42;10.74;61.72
76104;HTU21D;64831;44.870;37.336;2023-02-25T06:05:08;10.66;61.68
76104;HTU21D;64831;44.870;37.336;2023-02-25T06:07:34;10.59;61.68
76104;HTU21D;64831;44.870;37.336;2023-02-25T06:10:00;10.56;61.94
76104;HTU21D;64831;44.870;37.336;2023-02-25T06:12:31;10.51;61.93
76104;HTU21D;64831;44.870;37.336;2023-02-25T06:14:58;10.49;61.55
76104;HTU21D;64831;44.870;37.336;2023-02-25T06:17:24;10.52;61.47
76104;HTU21D;64831;44.870;37.336;2023-02-25T06:19:51;10.57;61.38
76104;HTU21D;64831;44.870;37.336;2023-02-25T06:22:18;10.64;61.40
76104;HTU21D;64831;44.870;37.336;2023-02-25T06:24:44;10.72;61.38
76104;HTU21D;64831;44.870;37.336;2023-02-25T06:27:10;10.75;61.25
76104;HTU21D;64831;44.870;37.336;2023-02-25T06:29:36;10.75;61.19
76104;HTU21D;64831;44.870;37.336;2023-02-25T06:32:12;10.74;61.31
76104;HTU21D;64831;44.870;37.336;2023-02-25T06:34:38;10.68;61.15
76104;HTU21D;64831;44.870;37.336;2023-02-25T06:37:05;10.75;61.40
76104;HTU21D;64831;44.870;37.336;2023-02-25T06:39:31;10.88;61.26
76104;HTU21D;64831;44.870;37.336;2023-02-25T06:41:57;10.94;60.87
76104;HTU21D;64831;44.870;37.336;2023-02-25T06:44:24;11.00;60.91
76104;HTU21D;64831;44.870;37.336;2023-02-25T06:46:52;11.03;60.96
76104;HTU21D;64831;44.870;37.336;2023-02-25T06:49:20;11.02;60.59
76104;HTU21D;64831;44.870;37.336;2023-02-25T06:51:47;11.02;60.28
76104;HTU21D;64831;44.870;37.336;2023-02-25T06:54:16;10.99;60.32
76104;HTU21D;64831;44.870;37.336;2023-02-25T06:56:42;10.98;60.47
76104;HTU21D;64831;44.870;37.336;2023-02-25T06:59:08;10.94;60.62
76104;HTU21D;64831;44.870;37.336;2023-02-25T07:01:34;10.93;60.83
76104;HTU21D;64831;44.870;37.336;2023-02-25T07:04:03;11.01;60.85
76104;HTU21D;64831;44.870;37.336;2023-02-25T07:06:29;11.12;60.60
76104;HTU21D;64831;44.870;37.336;2023-02-25T07:08:55;11.22;60.18
76104;HTU21D;64831;44.870;37.336;2023-02-25T07:11:28;11.24;59.91
76104;HTU21D;64831;44.870;37.336;2023-02-25T07:13:54;11.24;59.90
76104;HTU21D;64831;44.870;37.336;2023-02-25T07:16:20;11.25;59.62
76104;HTU21D;64831;44.870;37.336;2023-02-25T07:18:46;11.24;59.41
76104;HTU21D;64831;44.870;37.336;2023-02-25T07:21:12;11.28;59.35
76104;HTU21D;64831;44.870;37.336;2023-02-25T07:23:39;11.59;60.38
76104;HTU21D;64831;44.870;37.336;2023-02-25T07:26:07;12.23;60.58
76104;HTU21D;64831;44.870;37.336;2023-02-25T07:28:33;12.94;59.04
76104;HTU21D;64831;44.870;37.336;2023-02-25T07:31:00;13.56;57.10
76104;HTU21D;64831;44.870;37.336;2023-02-25T07:33:27;14.11;57.18
76104;HTU21D;64831;44.870;37.336;2023-02-25T07:35:54;14.59;54.56
76104;HTU21D;64831;44.870;37.336;2023-02-25T07:38:20;14.91;53.12
76104;HTU21D;64831;44.870;37.336;2023-02-25T07:40:46;15.02;52.82
76104;HTU21D;64831;44.870;37.336;2023-02-25T07:43:12;14.94;51.83
76104;HTU21D;64831;44.870;37.336;2023-02-25T07:45:40;14.80;51.57
76104;HTU21D;64831;44.870;37.336;2023-02-25T07:48:06;14.64;51.16
76104;HTU21D;64831;44.870;37.336;2023-02-25T07:50:32;14.42;51.40
76104;HTU21D;64831;44.870;37.336;2023-02-25T07:52:58;14.22;51.12
76104;HTU21D;64831;44.870;37.336;2023-02-25T07:55:24;13.82;50.95
76104;HTU21D;64831;44.870;37.336;2023-02-25T07:57:50;13.44;51.47
76104;HTU21D;64831;44.870;37.336;2023-02-25T08:00:16;13.25;52.07
76104;HTU21D;64831;44.870;37.336;2023-02-25T08:02:43;13.03;52.85
76104;HTU21D;64831;44.870;37.336;2023-02-25T08:05:10;13.15;53.29
76104;HTU21D;64831;44.870;37.336;2023-02-25T08:07:36;13.17;53.07
76104;HTU21D;64831;44.870;37.336;2023-02-25T08:10:03;13.15;53.16
76104;HTU21D;64831;44.870;37.336;2023-02-25T08:12:29;13.07;53.02
76104;HTU21D;64831;44.870;37.336;2023-02-25T08:14:56;13.00;53.39
76104;HTU21D;64831;44.870;37.336;2023-02-25T08:17:24;12.96;53.91
76104;HTU21D;64831;44.870;37.336;2023-02-25T08:19:55;13.03;53.85
76104;HTU21D;64831;44.870;37.336;2023-02-25T08:22:21;13.04;53.51
76104;HTU21D;64831;44.870;37.336;2023-02-25T08:24:47;12.91;53.59
76104;HTU21D;64831;44.870;37.336;2023-02-25T08:27:13;12.76;53.81
76104;HTU21D;64831;44.870;37.336;2023-02-25T08:29:39;12.64;54.08
76104;HTU21D;64831;44.870;37.336;2023-02-25T08:32:06;12.59;54.20
76104;HTU21D;64831;44.870;37.336;2023-02-25T08:34:33;12.55;54.54
76104;HTU21D;64831;44.870;37.336;2023-02-25T08:36:59;12.62;54.67
76104;HTU21D;64831;44.870;37.336;2023-02-25T08:39:25;12.60;54.42
76104;HTU21D;64831;44.870;37.336;2023-02-25T08:41:51;12.59;54.46
76104;HTU21D;64831;44.870;37.336;2023-02-25T08:44:17;12.62;54.81
76104;HTU21D;64831;44.870;37.336;2023-02-25T08:46:45;12.67;55.13
76104;HTU21D;64831;44.870;37.336;2023-02-25T08:49:11;12.93;55.91
76104;HTU21D;64831;44.870;37.336;2023-02-25T08:51:38;13.33;55.45
76104;HTU21D;64831;44.870;37.336;2023-02-25T08:54:07;13.68;55.07
76104;HTU21D;64831;44.870;37.336;2023-02-25T08:56:35;13.92;54.13
76104;HTU21D;64831;44.870;37.336;2023-02-25T08:59:01;14.13;53.65
76104;HTU21D;64831;44.870;37.336;2023-02-25T09:01:27;14.15;52.62
76104;HTU21D;64831;44.870;37.336;2023-02-25T09:04:20;14.24;52.36
76104;HTU21D;64831;44.870;37.336;2023-02-25T09:06:48;14.39;52.21
76104;HTU21D;64831;44.870;37.336;2023-02-25T09:09:17;14.41;51.76
76104;HTU21D;64831;44.870;37.336;2023-02-25T09:11:44;14.49;51.66
76104;HTU21D;64831;44.870;37.336;2023-02-25T09:14:11;14.53;51.11
76104;HTU21D;64831;44.870;37.336;2023-02-25T09:16:37;14.38;50.56
76104;HTU21D;64831;44.870;37.336;2023-02-25T09:19:03;14.19;50.54
76104;HTU21D;64831;44.870;37.336;2023-02-25T09:21:30;14.12;51.40
76104;HTU21D;64831;44.870;37.336;2023-02-25T09:23:57;14.25;51.82
76104;HTU21D;64831;44.870;37.336;2023-02-25T09:26:23;14.37;51.67
76104;HTU21D;64831;44.870;37.336;2023-02-25T09:28:49;14.43;51.37
76104;HTU21D;64831;44.870;37.336;2023-02-25T09:31:15;14.51;50.94
76104;HTU21D;64831;44.870;37.336;2023-02-25T09:33:41;14.47;50.76
76104;HTU21D;64831;44.870;37.336;2023-02-25T09:36:19;14.44;50.94
76104;HTU21D;64831;44.870;37.336;2023-02-25T09:38:46;14.54;50.98
76104;HTU21D;64831;44.870;37.336;2023-02-25T09:44:08;14.92;50.92
76104;HTU21D;64831;44.870;37.336;2023-02-25T09:46:38;15.00;50.26
76104;HTU21D;64831;44.870;37.336;2023-02-25T09:51:44;14.53;49.82
76104;HTU21D;64831;44.870;37.336;2023-02-25T09:54:22;14.30;50.62
76104;HTU21D;64831;44.870;37.336;2023-02-25T09:56:51;14.28;50.69
76104;HTU21D;64831;44.870;37.336;2023-02-25T09:59:18;14.07;50.34
76104;HTU21D;64831;44.870;37.336;2023-02-25T10:02:01;13.74;50.48
76104;HTU21D;64831;44.870;37.336;2023-02-25T10:05:01;13.32;51.50
76104;HTU21D;64831;44.870;37.336;2023-02-25T10:07:34;13.08;52.72
76104;HTU21D;64831;44.870;37.336;2023-02-25T10:10:15;12.87;53.39
76104;HTU21D;64831;44.870;37.336;2023-02-25T10:19:38;12.82;54.82
76104;HTU21D;64831;44.870;37.336;2023-02-25T10:24:33;12.36;55.60
76104;HTU21D;64831;44.870;37.336;2023-02-25T10:27:29;12.42;55.78
76104;HTU21D;64831;44.870;37.336;2023-02-25T10:30:04;12.63;55.58
76104;HTU21D;64831;44.870;37.336;2023-02-25T10:32:34;12.85;55.50
76104;HTU21D;64831;44.870;37.336;2023-02-25T10:35:18;12.90;55.26
76104;HTU21D;64831;44.870;37.336;2023-02-25T10:37:45;12.84;55.33
76104;HTU21D;64831;44.870;37.336;2023-02-25T10:40:15;12.72;56.26
76104;HTU21D;64831;44.870;37.336;2023-02-25T10:42:50;12.91;56.38
76104;HTU21D;64831;44.870;37.336;2023-02-25T10:45:22;12.92;56.32
76104;HTU21D;64831;44.870;37.336;2023-02-25T10:47:54;12.85;56.19
76104;HTU21D;64831;44.870;37.336;2023-02-25T10:50:25;12.82;56.11
76104;HTU21D;64831;44.870;37.336;2023-02-25T10:52:54;12.81;56.10
76104;HTU21D;64831;44.870;37.336;2023-02-25T10:58:21;12.95;55.48
76104;HTU21D;64831;44.870;37.336;2023-02-25T11:01:16;12.79;55.74
76104;HTU21D;64831;44.870;37.336;2023-02-25T11:08:43;12.63;56.47
76104;HTU21D;64831;44.870;37.336;2023-02-25T11:11:19;12.59;56.63
76104;HTU21D;64831;44.870;37.336;2023-02-25T11:14:02;12.52;57.02
76104;HTU21D;64831;44.870;37.336;2023-02-25T11:16:32;12.58;57.05
76104;HTU21D;64831;44.870;37.336;2023-02-25T11:19:00;12.61;57.36
76104;HTU21D;64831;44.870;37.336;2023-02-25T11:21:35;12.63;57.23
76104;HTU21D;64831;44.870;37.336;2023-02-25T11:24:29;12.73;57.53
76104;HTU21D;64831;44.870;37.336;2023-02-25T11:26:56;12.72;57.21
76104;HTU21D;64831;44.870;37.336;2023-02-25T11:29:30;12.75;57.29
76104;HTU21D;64831;44.870;37.336;2023-02-25T11:32:08;12.72;57.48
76104;HTU21D;64831;44.870;37.336;2023-02-25T11:37:37;12.73;57.30
76104;HTU21D;64831;44.870;37.336;2023-02-25T11:40:26;12.60;57.48
76104;HTU21D;64831;44.870;37.336;2023-02-25T11:45:50;12.38;58.00
76104;HTU21D;64831;44.870;37.336;2023-02-25T11:48:24;12.21;58.54
76104;HTU21D;64831;44.870;37.336;2023-02-25T14:44:35;10.80;67.30
76104;HTU21D;64831;44.870;37.336;2023-02-25T14:47:10;10.78;67.24
76104;HTU21D;64831;44.870;37.336;2023-02-25T14:49:59;10.77;67.11
76104;HTU21D;64831;44.870;37.336;2023-02-25T15:15:06;10.63;68.70
76104;HTU21D;64831;44.870;37.336;2023-02-25T15:22:32;10.42;70.18
76104;HTU21D;64831;44.870;37.336;2023-02-25T15:43:40;9.96;71.77
76104;HTU21D;64831;44.870;37.336;2023-02-25T15:49:00;9.85;72.47
76104;HTU21D;64831;44.870;37.336;2023-02-25T15:56:57;9.86;72.87
76104;HTU21D;64831;44.870;37.336;2023-02-25T16:04:48;9.92;73.00
76104;HTU21D;64831;44.870;37.336;2023-02-25T16:07:15;9.97;72.83
76104;HTU21D;64831;44.870;37.336;2023-02-25T16:10:02;9.99;73.12
76104;HTU21D;64831;44.870;37.336;2023-02-25T16:12:29;10.00;72.93
76104;HTU21D;64831;44.870;37.336;2023-02-25T16:14:55;10.00;72.83
76104;HTU21D;64831;44.870;37.336;2023-02-25T16:19:53;10.15;71.95
76104;HTU21D;64831;44.870;37.336;2023-02-25T16:22:21;10.20;72.06
76104;HTU21D;64831;44.870;37.336;2023-02-25T16:24:52;10.20;71.93
76104;HTU21D;64831;44.870;37.336;2023-02-25T16:27:21;10.21;72.03
76104;HTU21D;64831;44.870;37.336;2023-02-25T16:30:09;10.21;71.75
76104;HTU21D;64831;44.870;37.336;2023-02-25T16:32:40;10.23;71.64
76104;HTU21D;64831;44.870;37.336;2023-02-25T16:37:41;10.25;71.45
76104;HTU21D;64831;44.870;37.336;2023-02-25T16:40:28;10.25;71.82
76104;HTU21D;64831;44.870;37.336;2023-02-25T16:42:56;10.27;71.38
76104;HTU21D;64831;44.870;37.336;2023-02-25T16:45:49;10.29;71.47
76104;HTU21D;64831;44.870;37.336;2023-02-25T16:48:20;10.27;71.59
76104;HTU21D;64831;44.870;37.336;2023-02-25T16:50:47;10.23;71.93
76104;HTU21D;64831;44.870;37.336;2023-02-25T16:53:18;10.21;71.77
76104;HTU21D;64831;44.870;37.336;2023-02-25T16:55:45;10.22;71.61
76104;HTU21D;64831;44.870;37.336;2023-02-25T17:00:49;10.23;71.61
76104;HTU21D;64831;44.870;37.336;2023-02-25T17:03:18;10.26;71.73
76104;HTU21D;64831;44.870;37.336;2023-02-25T17:05:45;10.27;71.58
76104;HTU21D;64831;44.870;37.336;2023-02-25T17:08:22;10.26;71.48
76104;HTU21D;64831;44.870;37.336;2023-02-25T17:10:49;10.25;71.30
76104;HTU21D;64831;44.870;37.336;2023-02-25T17:13:30;10.25;71.31
76104;HTU21D;64831;44.870;37.336;2023-02-25T17:15:56;10.26;71.30
76104;HTU21D;64831;44.870;37.336;2023-02-25T17:18:29;10.30;71.07
76104;HTU21D;64831;44.870;37.336;2023-02-25T17:23:25;10.36;70.88
76104;HTU21D;64831;44.870;37.336;2023-02-25T17:25:51;10.37;70.77
76104;HTU21D;64831;44.870;37.336;2023-02-25T17:28:24;10.38;70.81
76104;HTU21D;64831;44.870;37.336;2023-02-25T17:30:51;10.37;70.77
76104;HTU21D;64831;44.870;37.336;2023-02-25T17:33:24;10.39;70.61
76104;HTU21D;64831;44.870;37.336;2023-02-25T17:35:51;10.36;70.74
76104;HTU21D;64831;44.870;37.336;2023-02-25T17:38:20;10.38;70.64
76104;HTU21D;64831;44.870;37.336;2023-02-25T17:40:47;10.38;70.55
76104;HTU21D;64831;44.870;37.336;2023-02-25T17:43:15;10.37;70.48
76104;HTU21D;64831;44.870;37.336;2023-02-25T17:45:43;10.35;70.52
76104;HTU21D;64831;44.870;37.336;2023-02-25T17:48:15;10.31;70.61
76104;HTU21D;64831;44.870;37.336;2023-02-25T17:50:42;10.34;70.50
76104;HTU21D;64831;44.870;37.336;2023-02-25T17:53:15;10.35;70.26
76104;HTU21D;64831;44.870;37.336;2023-02-25T17:55:45;10.36;69.95
76104;HTU21D;64831;44.870;37.336;2023-02-25T17:58:18;10.36;69.81
76104;HTU21D;64831;44.870;37.336;2023-02-25T18:00:53;10.34;69.74
76104;HTU21D;64831;44.870;37.336;2023-02-25T18:03:22;10.35;69.61
76104;HTU21D;64831;44.870;37.336;2023-02-25T18:05:54;10.35;69.33
76104;HTU21D;64831;44.870;37.336;2023-02-25T18:08:22;10.38;69.25
76104;HTU21D;64831;44.870;37.336;2023-02-25T18:10:52;10.39;68.92
76104;HTU21D;64831;44.870;37.336;2023-02-25T18:13:20;10.40;68.89
76104;HTU21D;64831;44.870;37.336;2023-02-25T18:15:48;10.39;68.54
76104;HTU21D;64831;44.870;37.336;2023-02-25T18:18:33;10.42;68.46
76104;HTU21D;64831;44.870;37.336;2023-02-25T18:20:59;10.42;68.09
76104;HTU21D;64831;44.870;37.336;2023-02-25T18:23:25;10.42;68.04
76104;HTU21D;64831;44.870;37.336;2023-02-25T18:26:15;10.42;67.89
76104;HTU21D;64831;44.870;37.336;2023-02-25T18:28:41;10.42;67.64
76104;HTU21D;64831;44.870;37.336;2023-02-25T18:31:08;10.41;67.62
76104;HTU21D;64831;44.870;37.336;2023-02-25T18:33:35;10.38;67.46
76104;HTU21D;64831;44.870;37.336;2023-02-25T18:36:00;10.39;67.55
76104;HTU21D;64831;44.870;37.336;2023-02-25T18:38:28;10.36;67.69
76104;HTU21D;64831;44.870;37.336;2023-02-25T18:40:54;10.30;67.70
76104;HTU21D;64831;44.870;37.336;2023-02-25T18:43:21;10.28;67.75
76104;HTU21D;64831;44.870;37.336;2023-02-25T18:45:47;10.27;67.58
76104;HTU21D;64831;44.870;37.336;2023-02-25T18:48:13;10.26;67.46
76104;HTU21D;64831;44.870;37.336;2023-02-25T18:50:39;10.24;67.46
76104;HTU21D;64831;44.870;37.336;2023-02-25T18:53:16;10.25;67.27
76104;HTU21D;64831;44.870;37.336;2023-02-25T18:55:42;10.26;67.12
76104;HTU21D;64831;44.870;37.336;2023-02-25T18:58:11;10.25;66.79
76104;HTU21D;64831;44.870;37.336;2023-02-25T19:00:37;10.24;66.54
76104;HTU21D;64831;44.870;37.336;2023-02-25T19:03:03;10.27;66.07
76104;HTU21D;64831;44.870;37.336;2023-02-25T19:05:29;10.30;65.94
76104;HTU21D;64831;44.870;37.336;2023-02-25T19:07:55;10.31;65.47
76104;HTU21D;64831;44.870;37.336;2023-02-25T19:10:22;10.34;64.98
76104;HTU21D;64831;44.870;37.336;2023-02-25T19:12:50;10.37;64.62
76104;HTU21D;64831;44.870;37.336;2023-02-25T19:15:17;10.39;64.13
76104;HTU21D;64831;44.870;37.336;2023-02-25T19:17:43;10.42;63.85
76104;HTU21D;64831;44.870;37.336;2023-02-25T19:20:13;10.48;63.68
76104;HTU21D;64831;44.870;37.336;2023-02-25T19:22:40;10.50;63.18
76104;HTU21D;64831;44.870;37.336;2023-02-25T19:25:08;10.53;62.81
76104;HTU21D;64831;44.870;37.336;2023-02-25T19:27:35;10.57;62.33
76104;HTU21D;64831;44.870;37.336;2023-02-25T19:30:03;10.58;62.73
76104;HTU21D;64831;44.870;37.336;2023-02-25T19:32:29;10.59;62.70
76104;HTU21D;64831;44.870;37.336;2023-02-25T19:34:55;10.59;62.76
76104;HTU21D;64831;44.870;37.336;2023-02-25T19:37:20;10.60;62.55
76104;HTU21D;64831;44.870;37.336;2023-02-25T19:39:46;10.59;62.35
76104;HTU21D;64831;44.870;37.336;2023-02-25T19:42:12;10.59;62.04
76104;HTU21D;64831;44.870;37.336;2023-02-25T19:44:38;10.63;61.93
76104;HTU21D;64831;44.870;37.336;2023-02-25T19:47:04;10.67;61.42
76104;HTU21D;64831;44.870;37.336;2023-02-25T19:49:30;10.69;61.09
76104;HTU21D;64831;44.870;37.336;2023-02-25T19:51:56;10.71;60.67
76104;HTU21D;64831;44.870;37.336;2023-02-25T19:54:22;10.74;60.96
76104;HTU21D;64831;44.870;37.336;2023-02-25T19:56:48;10.75;61.09
76104;HTU21D;64831;44.870;37.336;2023-02-25T19:59:17;10.73;60.54
76104;HTU21D;64831;44.870;37.336;2023-02-25T20:01:43;10.74;60.60
76104;HTU21D;64831;44.870;37.336;2023-02-25T20:04:11;10.72;60.38
76104;HTU21D;64831;44.870;37.336;2023-02-25T20:06:37;10.71;60.30
76104;HTU21D;64831;44.870;37.336;2023-02-25T20:09:04;10.71;60.09
76104;HTU21D;64831;44.870;37.336;2023-02-25T20:11:30;10.71;59.65
76104;HTU21D;64831;44.870;37.336;2023-02-25T20:13:56;10.73;59.81